FQLC

Details ICAO FQLC (VXC)
Name LICHINGA
Region Mozambique
Timezone Africa/Maputo (UTC+2.0)
Plans Departing 0
Arriving 0
Stats Elevation 4,505 ft / 1,373 m (AMSL)
Location -13.273986° 35.266260°
Runways 1
Magnetic Variation 5.224° W
Sunrise 2017-12-12 03:07:14 UTC / 2017-12-12 05:07:14 Local
Sunset 2017-12-12 16:00:53 UTC / 2017-12-12 18:00:53 Local
Advertisement - Login to hide

Runways

ID Width Length Bearing (true) Bearing (mag) Surface Threshold Offset Overrun Length
08 148 ft / 45 m 8,290 ft / 2,527 m 70.59° 75.81° Asphalt 0 ft / 0 m 0 ft / 0 m
26 148 ft / 45 m 8,290 ft / 2,527 m 250.59° 255.81° Asphalt 0 ft / 0 m 0 ft / 0 m

Map

Weather


0- 5 10 15 20 25 30 35+ Temperature / ° C

Clouds and Precipitation
Forecast for 2017-12-12 06:00 UTC. Updated 2 hours ago

Ground ~20,000 ft ~40,000 ft Winds

METAR

FQLC 120500Z 05006KT 2000 DZ BR BKN003 BKN014 FEW///CB 18/18 Q1021 RMK CB TO N/W

TAF

Not found

Frequencies

Tower 118.40 MHz AFIS
Warning: Do not use this data for real-world aviation or navigation. No guarantee of current accuracy is given.